createdAt,value
2022-11-11T00:04:42.478Z,2.47
2022-11-11T00:09:43.960Z,3.42
2022-11-11T00:14:45.526Z,2.83
2022-11-11T00:20:05.488Z,2.40
2022-11-11T00:25:07.845Z,2.00
2022-11-11T00:30:09.993Z,2.20
2022-11-11T00:35:30.447Z,2.95
2022-11-11T00:40:31.934Z,3.47
2022-11-11T00:45:33.443Z,2.58
2022-11-11T00:50:53.634Z,3.17
2022-11-11T00:55:56.583Z,2.70
2022-11-11T01:00:58.095Z,3.15
2022-11-11T01:06:04.531Z,2.38
2022-11-11T01:11:14.759Z,2.60
2022-11-11T01:16:23.446Z,2.63
2022-11-11T01:21:26.071Z,2.40
2022-11-11T01:26:31.442Z,3.03
2022-11-11T01:31:33.460Z,3.10
2022-11-11T01:36:35.069Z,3.25
2022-11-11T01:41:38.264Z,3.92
2022-11-11T01:47:04.361Z,4.10
2022-11-11T01:52:18.320Z,3.10
2022-11-11T01:57:27.750Z,3.35
2022-11-11T02:03:09.747Z,4.22
2022-11-11T02:08:32.639Z,3.90
2022-11-11T02:13:57.406Z,3.80
2022-11-11T02:18:58.953Z,3.30
2022-11-11T02:24:11.115Z,4.78
2022-11-11T02:29:16.977Z,4.25
2022-11-11T02:34:18.456Z,4.57
2022-11-11T02:39:27.184Z,3.97
2022-11-11T02:44:33.326Z,8.25
2022-11-11T02:49:35.021Z,4.55
2022-11-11T02:54:36.576Z,4.57
2022-11-11T02:59:40.546Z,4.65
2022-11-11T03:04:42.319Z,4.00
2022-11-11T03:09:43.810Z,2.67
2022-11-11T03:14:45.518Z,3.05
2022-11-11T03:19:47.240Z,2.58
2022-11-11T03:25:07.126Z,3.05
2022-11-11T03:30:09.062Z,2.90
2022-11-11T03:35:10.525Z,2.10
2022-11-11T03:40:12.381Z,2.30
2022-11-11T03:45:13.839Z,1.70
2022-11-11T03:50:15.302Z,2.80
2022-11-11T03:55:16.869Z,2.67
2022-11-11T04:00:21.893Z,2.83
2022-11-11T04:05:41.712Z,3.55
2022-11-11T04:10:43.231Z,2.93
2022-11-11T04:16:03.427Z,2.67
2022-11-11T04:21:23.145Z,2.50
2022-11-11T04:26:24.643Z,2.60
2022-11-11T04:31:26.153Z,2.67
2022-11-11T04:36:27.658Z,3.25
2022-11-11T04:41:53.682Z,3.75
2022-11-11T04:46:50.502Z,4.85
2022-11-11T04:52:12.417Z,3.33
2022-11-11T04:57:13.920Z,3.80
2022-11-11T05:02:34.146Z,3.00
2022-11-11T05:08:07.923Z,3.92
2022-11-11T05:13:27.907Z,3.67
2022-11-11T05:19:02.296Z,3.93
2022-11-11T05:24:22.629Z,5.35
2022-11-11T05:29:24.096Z,4.28
2022-11-11T05:34:25.576Z,4.55
2022-11-11T05:39:27.053Z,3.50
2022-11-11T05:44:28.560Z,3.33
2022-11-11T05:49:30.442Z,4.95
2022-11-11T05:54:31.963Z,4.53
2022-11-11T05:59:33.640Z,5.68
2022-11-11T06:04:35.999Z,3.60
2022-11-11T06:09:37.442Z,4.05
2022-11-11T06:14:38.992Z,6.15
2022-11-11T06:19:40.495Z,3.83
2022-11-11T06:24:41.957Z,3.42
2022-11-11T06:29:43.451Z,3.10
2022-11-11T06:34:44.902Z,3.75
2022-11-11T06:39:46.398Z,9.75
2022-11-11T06:44:47.867Z,5.55
2022-11-11T06:49:49.325Z,5.10
2022-11-11T06:54:50.793Z,3.17
2022-11-11T06:59:52.283Z,3.90
2022-11-11T07:04:53.838Z,3.03
2022-11-11T07:09:55.843Z,4.30
2022-11-11T07:14:57.338Z,15.93
2022-11-11T07:19:58.922Z,4.70
2022-11-11T07:25:00.491Z,7.82
2022-11-11T07:30:01.972Z,5.28
2022-11-11T07:35:04.414Z,12.43
2022-11-11T07:40:06.682Z,5.93
2022-11-11T07:45:10.494Z,5.50
2022-11-11T07:50:12.871Z,4.40
2022-11-11T07:55:15.200Z,3.40
2022-11-11T08:00:17.164Z,8.48
2022-11-11T08:05:19.298Z,4.00
2022-11-11T08:10:20.850Z,2.92
2022-11-11T08:15:22.434Z,2.70
2022-11-11T08:20:23.963Z,3.42
2022-11-11T08:25:26.304Z,2.45
2022-11-11T08:30:28.023Z,3.15
2022-11-11T08:35:30.443Z,2.90
2022-11-11T08:40:31.930Z,3.38
2022-11-11T08:45:33.709Z,2.80
2022-11-11T08:50:35.177Z,2.92
2022-11-11T08:55:37.762Z,3.53
2022-11-11T09:00:39.560Z,4.20
2022-11-11T09:05:41.638Z,4.07
2022-11-11T09:10:43.293Z,3.97
2022-11-11T09:15:44.951Z,3.50
2022-11-11T09:20:46.573Z,3.90
2022-11-11T09:25:48.744Z,4.43
2022-11-11T09:30:50.407Z,3.45
2022-11-11T09:35:52.016Z,4.65
2022-11-11T09:41:10.149Z,2.83
2022-11-11T09:46:36.723Z,9.57
2022-11-11T09:51:44.414Z,3.65
2022-11-11T09:56:46.509Z,5.78
2022-11-11T10:01:54.063Z,6.70
2022-11-11T10:07:03.516Z,5.45
2022-11-11T10:12:14.328Z,5.00
2022-11-11T10:17:40.885Z,3.60
2022-11-11T10:22:43.398Z,4.45
2022-11-11T10:27:47.471Z,3.92
2022-11-11T10:32:59.589Z,3.78
2022-11-11T10:38:09.899Z,4.55
2022-11-11T10:43:31.672Z,4.40
2022-11-11T10:48:51.261Z,4.43
2022-11-11T10:54:03.344Z,7.20
2022-11-11T10:59:14.171Z,5.45
2022-11-11T11:04:29.062Z,4.93
2022-11-11T11:09:42.054Z,4.07
2022-11-11T11:14:47.918Z,4.80
2022-11-11T11:20:19.651Z,5.07
2022-11-11T11:25:22.311Z,4.35
2022-11-11T11:30:26.437Z,5.05
2022-11-11T11:35:40.693Z,5.93
2022-11-11T11:40:59.304Z,5.55
2022-11-11T11:46:08.402Z,4.95
2022-11-11T11:51:34.090Z,5.55
2022-11-11T11:56:42.502Z,4.47
2022-11-11T12:02:23.240Z,5.32
2022-11-11T12:07:50.145Z,5.20
2022-11-11T12:13:01.670Z,6.07
2022-11-11T12:18:22.925Z,5.80
2022-11-11T12:23:46.430Z,5.53
2022-11-11T12:28:53.702Z,6.20
2022-11-11T12:34:10.395Z,5.32
2022-11-11T12:39:26.592Z,6.10
2022-11-11T12:44:46.379Z,5.75
2022-11-11T12:50:08.595Z,5.32
2022-11-11T12:55:16.324Z,6.13
2022-11-11T13:00:20.524Z,6.95
2022-11-11T13:05:27.848Z,6.38
2022-11-11T13:10:52.752Z,6.72
2022-11-11T13:15:56.480Z,7.70
2022-11-11T13:21:07.134Z,7.50
2022-11-11T13:26:25.780Z,8.45
2022-11-11T13:31:27.432Z,6.18
2022-11-11T13:36:32.000Z,6.70
2022-11-11T13:41:38.265Z,6.65
2022-11-11T13:46:48.569Z,7.00
2022-11-11T13:51:59.527Z,7.95
2022-11-11T13:57:21.195Z,7.53
2022-11-11T14:02:22.795Z,8.55
2022-11-11T14:07:48.855Z,8.32
2022-11-11T14:12:52.484Z,7.32
2022-11-11T14:17:54.213Z,8.70
2022-11-11T14:23:15.827Z,9.93
2022-11-11T14:28:26.826Z,10.20
2022-11-11T14:33:38.579Z,11.95
2022-11-11T14:38:57.410Z,10.95
2022-11-11T14:44:27.911Z,12.73
2022-11-11T14:49:54.367Z,9.90
2022-11-11T14:54:59.033Z,9.82
2022-11-11T15:00:03.586Z,9.05
2022-11-11T15:05:15.067Z,9.15
2022-11-11T15:10:25.679Z,11.98
2022-11-11T15:20:58.015Z,13.90
2022-11-11T15:26:09.464Z,11.85
2022-11-11T15:31:32.212Z,10.07
2022-11-11T15:36:57.563Z,10.65
2022-11-11T15:41:59.329Z,10.07
2022-11-11T15:47:01.628Z,10.30
2022-11-11T15:52:04.047Z,10.00
2022-11-11T15:57:35.187Z,9.60
2022-11-11T16:02:36.723Z,11.77
2022-11-11T16:07:43.357Z,11.02
2022-11-11T16:12:53.585Z,10.40
2022-11-11T16:18:00.232Z,10.20
2022-11-11T16:23:07.033Z,11.63
2022-11-11T16:28:12.089Z,10.93
2022-11-11T16:33:39.740Z,16.65
2022-11-11T16:38:41.286Z,12.68
2022-11-11T16:43:43.201Z,13.75
2022-11-11T16:48:48.570Z,12.00
2022-11-11T16:54:08.232Z,12.73
2022-11-11T16:59:16.474Z,12.35
2022-11-11T17:04:17.989Z,31.15
2022-11-11T17:09:36.996Z,13.50
2022-11-11T17:14:39.152Z,10.75
2022-11-11T17:19:40.656Z,10.25
2022-11-11T17:24:42.964Z,12.00
2022-11-11T17:29:44.517Z,10.02
2022-11-11T17:34:46.115Z,10.20
2022-11-11T17:39:47.667Z,8.57
2022-11-11T17:44:49.109Z,9.45
2022-11-11T17:49:56.537Z,10.00
2022-11-11T17:54:58.878Z,13.98
2022-11-11T18:00:00.372Z,16.33
2022-11-11T18:05:01.875Z,13.00
2022-11-11T18:10:03.792Z,10.73
2022-11-11T18:15:06.405Z,10.88
2022-11-11T18:20:08.767Z,14.20
2022-11-11T18:25:11.533Z,19.70
2022-11-11T18:30:13.122Z,34.42
2022-11-11T18:35:14.857Z,11.55
2022-11-11T18:40:16.447Z,7.03
2022-11-11T18:45:18.480Z,9.35
2022-11-11T18:50:19.982Z,23.17
2022-11-11T18:55:21.472Z,7.50
2022-11-11T19:00:22.932Z,6.95
2022-11-11T19:05:24.459Z,8.57
2022-11-11T19:10:26.009Z,7.68
2022-11-11T19:15:27.557Z,7.82
2022-11-11T19:20:29.044Z,9.25
2022-11-11T19:25:32.867Z,7.60
2022-11-11T19:30:35.353Z,7.80
2022-11-11T19:35:36.838Z,8.90
2022-11-11T19:40:38.387Z,7.13
2022-11-11T19:45:39.924Z,9.00
2022-11-11T19:50:42.089Z,7.30
2022-11-11T19:55:43.926Z,7.15
2022-11-11T20:00:47.458Z,6.22
2022-11-11T20:05:49.214Z,6.47
2022-11-11T20:10:50.668Z,7.20
2022-11-11T20:15:52.151Z,6.45
2022-11-11T20:21:00.296Z,6.45
2022-11-11T20:26:05.404Z,6.50
2022-11-11T20:31:09.132Z,6.25
2022-11-11T20:36:13.303Z,5.53
2022-11-11T20:41:17.696Z,5.93
2022-11-11T20:46:20.306Z,5.75
2022-11-11T20:51:24.726Z,4.78
2022-11-11T20:56:26.754Z,5.25
2022-11-11T21:01:29.003Z,5.32
2022-11-11T21:06:30.789Z,7.28
2022-11-11T21:11:32.283Z,10.05
2022-11-11T21:16:33.901Z,7.80
2022-11-11T21:21:35.681Z,7.53
2022-11-11T21:26:37.803Z,9.88
2022-11-11T21:31:40.139Z,8.70
2022-11-11T21:36:42.879Z,13.70
2022-11-11T21:41:44.348Z,14.45
2022-11-11T21:46:45.881Z,12.05
2022-11-11T21:51:48.394Z,12.57
2022-11-11T21:56:49.871Z,9.75
2022-11-11T22:01:51.410Z,9.57
2022-11-11T22:06:52.960Z,8.95
2022-11-11T22:11:54.482Z,9.65
2022-11-11T22:16:55.937Z,9.63
2022-11-11T22:21:57.399Z,9.52
2022-11-11T22:26:59.327Z,10.15
2022-11-11T22:32:00.887Z,9.75
2022-11-11T22:37:03.096Z,9.45
2022-11-11T22:42:04.554Z,9.07
2022-11-11T22:47:06.030Z,10.43
2022-11-11T22:52:07.535Z,9.20
2022-11-11T22:57:09.059Z,8.65
2022-11-11T23:02:10.598Z,6.80
2022-11-11T23:07:12.222Z,5.97
2022-11-11T23:12:13.745Z,6.95
2022-11-11T23:17:15.212Z,7.50
2022-11-11T23:22:16.688Z,8.05
2022-11-11T23:27:18.462Z,8.98
2022-11-11T23:32:19.900Z,11.80
2022-11-11T23:37:21.328Z,8.60
2022-11-11T23:42:22.790Z,7.75
2022-11-11T23:47:24.222Z,11.40
2022-11-11T23:52:25.661Z,9.90
2022-11-11T23:57:27.227Z,11.00
